createdAt,value
2023-03-17T00:00:36.723Z,100980.89
2023-03-17T00:03:27.136Z,100978.33
2023-03-17T00:06:02.035Z,100977.23
2023-03-17T00:08:37.250Z,100978.11
2023-03-17T00:11:14.182Z,100978.33
2023-03-17T00:13:47.353Z,100975.26
2023-03-17T00:16:23.138Z,100969.71
2023-03-17T00:18:56.825Z,100969.91
2023-03-17T00:21:31.797Z,100970.41
2023-03-17T00:24:04.175Z,100967.48
2023-03-17T00:26:36.964Z,100962.89
2023-03-17T00:29:09.992Z,100967.19
2023-03-17T00:31:42.613Z,100972.48
2023-03-17T00:34:19.520Z,100970.63
2023-03-17T00:36:53.634Z,100967.52
2023-03-17T00:39:28.182Z,100968.23
2023-03-17T00:42:00.709Z,100966.66
2023-03-17T00:44:33.244Z,100962.77
2023-03-17T00:47:05.810Z,100964.87
2023-03-17T00:49:38.159Z,100968.83
2023-03-17T00:52:11.448Z,100965.02
2023-03-17T00:54:43.707Z,100959.35
2023-03-17T00:57:16.280Z,100956.96
2023-03-17T00:59:48.765Z,100961.65
2023-03-17T01:02:21.213Z,100965.14
2023-03-17T01:05:05.530Z,100962.89
2023-03-17T01:07:40.766Z,100966.80
2023-03-17T01:10:19.543Z,100964.69
2023-03-17T01:12:52.320Z,100959.30
2023-03-17T01:15:25.712Z,100963.14
2023-03-17T01:17:58.559Z,100958.26
2023-03-17T01:20:33.058Z,100959.85
2023-03-17T01:23:05.739Z,100957.59
2023-03-17T01:25:39.318Z,100955.73
2023-03-17T01:28:14.387Z,100956.27
2023-03-17T01:30:47.518Z,100954.14
2023-03-17T01:33:19.804Z,100952.17
2023-03-17T01:35:53.086Z,100949.89
2023-03-17T01:38:25.348Z,100948.65
2023-03-17T01:40:57.665Z,100947.17
2023-03-17T01:43:31.591Z,100942.09
2023-03-17T01:46:27.767Z,100939.29
2023-03-17T01:49:14.738Z,100941.23
2023-03-17T01:51:57.691Z,100946.11
2023-03-17T01:54:35.878Z,100948.56
2023-03-17T01:57:14.154Z,100948.34
2023-03-17T01:59:52.033Z,100952.85
2023-03-17T02:02:29.067Z,100954.34
2023-03-17T02:05:01.907Z,100952.88
2023-03-17T02:07:35.537Z,100954.55
2023-03-17T02:10:11.028Z,100955.34
2023-03-17T02:12:46.088Z,100955.70
2023-03-17T02:15:18.606Z,100958.49
2023-03-17T02:17:51.064Z,100961.41
2023-03-17T02:20:58.761Z,100958.16
2023-03-17T02:23:31.872Z,100956.73
2023-03-17T02:26:05.309Z,100954.16
2023-03-17T02:28:37.608Z,100953.35
2023-03-17T02:31:09.929Z,100953.98
2023-03-17T02:33:42.801Z,100960.27
2023-03-17T02:36:15.836Z,100959.19
2023-03-17T02:38:50.373Z,100961.66
2023-03-17T02:41:23.501Z,100966.38
2023-03-17T02:43:55.853Z,100966.77
2023-03-17T02:46:28.671Z,100967.92
2023-03-17T02:49:05.767Z,100970.14
2023-03-17T02:51:38.296Z,100972.00
2023-03-17T02:54:10.902Z,100965.20
2023-03-17T02:56:43.160Z,100965.64
2023-03-17T02:59:16.278Z,100969.90
2023-03-17T03:01:50.734Z,100963.69
2023-03-17T03:04:24.048Z,100961.71
2023-03-17T03:06:57.086Z,100961.83
2023-03-17T03:09:29.904Z,100961.61
2023-03-17T03:12:03.084Z,100953.91
2023-03-17T03:14:38.010Z,100951.91
2023-03-17T03:17:11.799Z,100950.20
2023-03-17T03:19:45.087Z,100947.42
2023-03-17T03:22:17.446Z,100939.56
2023-03-17T03:24:49.873Z,100933.11
2023-03-17T03:27:22.214Z,100930.20
2023-03-17T03:29:54.600Z,100930.30
2023-03-17T03:32:27.747Z,100931.02
2023-03-17T03:34:59.982Z,100938.54
2023-03-17T03:37:32.323Z,100934.33
2023-03-17T03:40:04.968Z,100942.95
2023-03-17T03:42:37.273Z,100942.44
2023-03-17T03:45:11.440Z,100944.21
2023-03-17T03:47:43.871Z,100940.82
2023-03-17T03:50:16.890Z,100942.16
2023-03-17T03:52:49.263Z,100936.20
2023-03-17T03:55:21.775Z,100926.73
2023-03-17T03:57:54.154Z,100924.94
2023-03-17T04:00:27.377Z,100923.44
2023-03-17T04:02:59.722Z,100922.50
2023-03-17T04:05:32.101Z,100920.77
2023-03-17T04:08:04.493Z,100911.73
2023-03-17T04:10:37.099Z,100912.80
2023-03-17T04:13:09.685Z,100920.77
2023-03-17T04:15:42.698Z,100927.09
2023-03-17T04:18:15.151Z,100935.60
2023-03-17T04:20:47.567Z,100941.00
2023-03-17T04:23:19.933Z,100946.60
2023-03-17T04:25:55.109Z,100951.52
2023-03-17T04:28:27.798Z,100957.38
2023-03-17T04:31:00.135Z,100958.77
2023-03-17T04:33:32.445Z,100965.40
2023-03-17T04:36:05.240Z,100964.72
2023-03-17T04:38:37.548Z,100966.38
2023-03-17T04:41:09.929Z,100962.77
2023-03-17T04:43:42.472Z,100965.48
2023-03-17T04:46:14.905Z,100962.61
2023-03-17T04:48:47.293Z,100954.14
2023-03-17T04:51:19.551Z,100957.11
2023-03-17T04:53:52.601Z,100958.70
2023-03-17T04:56:25.075Z,100956.00
2023-03-17T04:58:57.452Z,100955.68
2023-03-17T05:01:29.835Z,100955.08
2023-03-17T05:04:02.174Z,100952.91
2023-03-17T05:06:34.466Z,100948.81
2023-03-17T05:09:06.947Z,100945.91
2023-03-17T05:11:41.434Z,100948.46
2023-03-17T05:14:13.758Z,100944.05
2023-03-17T05:16:47.867Z,100941.60
2023-03-17T05:19:20.613Z,100937.63
2023-03-17T05:21:52.933Z,100946.77
2023-03-17T05:24:25.322Z,100955.10
2023-03-17T05:26:57.788Z,100960.83
2023-03-17T05:29:30.198Z,100956.02
2023-03-17T05:32:02.543Z,100955.97
2023-03-17T05:34:34.764Z,100958.59
2023-03-17T05:37:07.777Z,100961.55
2023-03-17T05:39:40.075Z,100966.32
2023-03-17T05:42:12.919Z,100973.34
2023-03-17T05:44:45.322Z,100981.75
2023-03-17T05:47:17.624Z,100981.48
2023-03-17T05:49:49.851Z,100983.05
2023-03-17T05:52:22.232Z,100981.88
2023-03-17T05:54:54.836Z,100979.77
2023-03-17T05:57:27.469Z,100976.36
2023-03-17T06:00:00.009Z,100972.10
2023-03-17T06:02:32.465Z,100974.30
2023-03-17T06:05:05.038Z,100977.77
2023-03-17T06:07:50.951Z,100972.75
2023-03-17T06:10:24.388Z,100965.83
2023-03-17T06:12:57.207Z,100963.65
2023-03-17T06:15:30.219Z,100963.42
2023-03-17T06:18:02.692Z,100956.42
2023-03-17T06:20:35.672Z,100955.44
2023-03-17T06:23:08.075Z,100962.14
2023-03-17T06:25:40.462Z,100971.69
2023-03-17T06:28:13.544Z,100974.50
2023-03-17T06:30:45.874Z,100967.77
2023-03-17T06:33:19.324Z,100963.27
2023-03-17T06:35:51.810Z,100960.04
2023-03-17T06:38:24.855Z,100962.66
2023-03-17T06:40:58.033Z,100966.63
2023-03-17T06:43:30.396Z,100969.77
2023-03-17T06:46:03.249Z,100972.98
2023-03-17T06:48:35.674Z,100972.70
2023-03-17T06:51:09.226Z,100980.63
2023-03-17T06:53:41.636Z,100981.17
2023-03-17T06:56:27.378Z,100981.35
2023-03-17T06:59:02.174Z,100978.37
2023-03-17T07:01:34.514Z,100978.52
2023-03-17T07:04:06.962Z,100977.62
2023-03-17T07:06:39.488Z,100979.35
2023-03-17T07:09:11.871Z,100977.11
2023-03-17T07:11:44.211Z,100983.73
2023-03-17T07:14:16.625Z,100983.59
2023-03-17T07:16:50.329Z,100985.67
2023-03-17T07:19:22.695Z,100976.62
2023-03-17T07:21:55.897Z,100970.98
2023-03-17T07:24:28.566Z,100965.45
2023-03-17T07:27:00.970Z,100964.39
2023-03-17T07:29:34.103Z,100961.11
2023-03-17T07:32:08.328Z,100956.11
2023-03-17T07:34:40.845Z,100957.20
2023-03-17T07:37:13.431Z,100954.21
2023-03-17T07:39:47.422Z,100960.85
2023-03-17T07:42:19.873Z,100964.13
2023-03-17T07:44:52.303Z,100962.48
2023-03-17T07:47:24.584Z,100965.20
2023-03-17T07:49:57.406Z,100968.55
2023-03-17T07:52:29.734Z,100975.98
2023-03-17T07:55:02.636Z,100977.39
2023-03-17T07:57:35.037Z,100979.30
2023-03-17T08:00:10.480Z,100978.05
2023-03-17T08:02:53.688Z,100972.77
2023-03-17T08:05:32.741Z,100970.16
2023-03-17T08:08:06.773Z,100969.54
2023-03-17T08:10:39.302Z,100978.70
2023-03-17T08:13:11.605Z,100984.40
2023-03-17T08:15:43.964Z,100985.81
2023-03-17T08:18:16.168Z,100982.17
2023-03-17T08:20:48.632Z,100981.88
2023-03-17T08:23:21.600Z,100982.82
2023-03-17T08:25:59.608Z,100981.85
2023-03-17T08:28:32.712Z,100983.32
2023-03-17T08:31:13.806Z,100979.74
2023-03-17T08:33:49.017Z,100979.66
2023-03-17T08:36:22.365Z,100974.00
2023-03-17T08:38:55.409Z,100968.02
2023-03-17T08:41:28.912Z,100969.00
2023-03-17T08:44:02.160Z,100967.25
2023-03-17T08:46:35.123Z,100965.22
2023-03-17T08:49:08.151Z,100962.02
2023-03-17T08:51:41.981Z,100963.14
2023-03-17T08:54:15.357Z,100962.38
2023-03-17T08:56:47.830Z,100958.44
2023-03-17T08:59:20.058Z,100962.91
2023-03-17T09:01:52.639Z,100973.58
2023-03-17T09:04:26.021Z,100975.36
2023-03-17T09:07:03.873Z,100972.55
2023-03-17T09:09:36.753Z,100974.48
2023-03-17T09:12:10.180Z,100971.72
2023-03-17T09:14:44.162Z,100969.10
2023-03-17T09:17:16.801Z,100967.77
2023-03-17T09:19:49.294Z,100963.45
2023-03-17T09:22:21.777Z,100961.34
2023-03-17T09:24:54.382Z,100951.65
2023-03-17T09:27:26.714Z,100947.80
2023-03-17T09:29:58.984Z,100948.80
2023-03-17T09:32:31.378Z,100943.84
2023-03-17T09:35:03.975Z,100950.58
2023-03-17T09:37:36.341Z,100949.83
2023-03-17T09:40:13.670Z,100948.16
2023-03-17T09:42:54.515Z,100945.24
2023-03-17T09:45:34.024Z,100947.09
2023-03-17T09:48:38.980Z,100944.33
2023-03-17T09:51:14.038Z,100944.14
2023-03-17T09:53:53.396Z,100946.27
2023-03-17T09:56:28.009Z,100938.18
2023-03-17T09:59:06.062Z,100937.74
2023-03-17T10:01:41.954Z,100933.48
2023-03-17T10:04:21.281Z,100931.88
2023-03-17T10:06:59.403Z,100925.84
2023-03-17T10:09:40.309Z,100925.16
2023-03-17T10:12:19.707Z,100918.71
2023-03-17T10:14:59.933Z,100907.80
2023-03-17T10:17:35.758Z,100912.02
2023-03-17T10:20:14.623Z,100910.13
2023-03-17T10:22:50.412Z,100906.40
2023-03-17T10:25:25.761Z,100903.81
2023-03-17T10:28:01.695Z,100897.49
2023-03-17T10:30:35.945Z,100888.63
2023-03-17T10:33:08.926Z,100885.60
2023-03-17T10:35:41.598Z,100883.86
2023-03-17T10:38:21.034Z,100873.94
2023-03-17T10:41:00.714Z,100863.21
2023-03-17T10:43:36.811Z,100856.04
2023-03-17T10:46:18.826Z,100847.77
2023-03-17T10:48:56.581Z,100855.80
2023-03-17T10:51:33.557Z,100843.69
2023-03-17T10:54:11.256Z,100849.38
2023-03-17T10:56:47.667Z,100840.89
2023-03-17T10:59:27.543Z,100836.69
2023-03-17T11:02:02.327Z,100842.52
2023-03-17T11:04:36.848Z,100843.78
2023-03-17T11:07:16.597Z,100840.08
2023-03-17T11:09:52.101Z,100834.52
2023-03-17T11:12:28.604Z,100838.86
2023-03-17T11:15:03.870Z,100833.14
2023-03-17T11:17:53.256Z,100839.11
2023-03-17T11:20:54.422Z,100841.90
2023-03-17T11:23:48.768Z,100840.26
2023-03-17T11:26:41.807Z,100839.94
2023-03-17T11:29:28.144Z,100844.22
2023-03-17T11:32:12.490Z,100834.16
2023-03-17T11:34:56.933Z,100832.27
2023-03-17T11:37:45.451Z,100819.05
2023-03-17T11:40:22.418Z,100812.69
2023-03-17T11:43:07.373Z,100810.19
2023-03-17T11:45:48.948Z,100808.45
2023-03-17T11:48:30.061Z,100800.80
2023-03-17T11:51:10.448Z,100800.14
2023-03-17T11:54:08.038Z,100801.84
2023-03-17T11:56:47.341Z,100794.30
2023-03-17T11:59:31.550Z,100790.23
2023-03-17T12:02:16.375Z,100789.90
2023-03-17T12:04:54.490Z,100783.48
2023-03-17T12:07:31.566Z,100773.05
2023-03-17T12:10:17.432Z,100773.52
2023-03-17T12:12:54.623Z,100772.05
2023-03-17T12:15:33.901Z,100763.30
2023-03-17T12:18:13.333Z,100760.59
2023-03-17T12:20:52.218Z,100759.99
2023-03-17T12:23:34.118Z,100763.30
2023-03-17T12:26:12.457Z,100754.93
2023-03-17T12:28:52.364Z,100754.48
2023-03-17T12:31:29.495Z,100746.88
2023-03-17T12:34:08.045Z,100738.92
2023-03-17T12:36:41.570Z,100738.83
2023-03-17T12:39:16.383Z,100738.50
2023-03-17T12:42:13.642Z,100723.85
2023-03-17T12:45:12.022Z,100715.70
2023-03-17T12:48:00.114Z,100697.86
2023-03-17T12:50:56.524Z,100692.00
2023-03-17T12:53:33.473Z,100698.58
2023-03-17T12:56:19.528Z,100696.34
2023-03-17T12:58:54.172Z,100697.41
2023-03-17T13:01:33.792Z,100680.46
2023-03-17T13:04:19.539Z,100675.18
2023-03-17T13:07:00.922Z,100675.19
2023-03-17T13:09:43.272Z,100667.95
2023-03-17T13:12:57.141Z,100666.75
2023-03-17T13:16:01.349Z,100666.87
2023-03-17T13:18:54.142Z,100661.38
2023-03-17T13:21:33.497Z,100663.17
2023-03-17T13:24:43.788Z,100669.91
2023-03-17T13:27:36.765Z,100664.42
2023-03-17T13:30:39.553Z,100666.77
2023-03-17T13:33:24.477Z,100668.20
2023-03-17T13:36:19.574Z,100658.99
2023-03-17T13:39:19.221Z,100656.81
2023-03-17T13:42:35.611Z,100638.77
2023-03-17T13:45:23.368Z,100641.01
2023-03-17T13:48:15.808Z,100634.55
2023-03-17T13:50:48.275Z,100629.62
2023-03-17T13:53:29.924Z,100636.50
2023-03-17T13:56:19.993Z,100640.25
2023-03-17T13:59:12.685Z,100642.34
2023-03-17T14:01:48.817Z,100652.91
2023-03-17T14:04:25.834Z,100659.75
2023-03-17T14:07:06.987Z,100662.55
2023-03-17T14:09:42.197Z,100656.39
2023-03-17T14:12:22.285Z,100650.06
2023-03-17T14:15:07.564Z,100654.52
2023-03-17T14:17:45.765Z,100650.05
2023-03-17T14:20:27.101Z,100649.77
2023-03-17T14:23:02.980Z,100652.55
2023-03-17T14:25:37.616Z,100647.30
2023-03-17T14:28:14.142Z,100650.08
2023-03-17T14:30:54.265Z,100637.84
2023-03-17T14:33:28.110Z,100627.86
2023-03-17T14:36:04.369Z,100627.84
2023-03-17T14:38:38.651Z,100625.42
2023-03-17T14:41:20.834Z,100622.84
2023-03-17T14:43:58.005Z,100623.77
2023-03-17T14:46:37.171Z,100635.64
2023-03-17T14:49:18.859Z,100639.08
2023-03-17T14:51:54.318Z,100633.32
2023-03-17T14:54:28.972Z,100628.06
2023-03-17T14:57:05.076Z,100630.30
2023-03-17T14:59:39.620Z,100626.02
2023-03-17T15:02:24.081Z,100625.99
2023-03-17T15:04:59.345Z,100622.30
2023-03-17T15:07:37.283Z,100612.59
2023-03-17T15:10:17.673Z,100611.70
2023-03-17T15:12:50.310Z,100612.72
2023-03-17T15:15:27.620Z,100610.70
2023-03-17T15:18:04.165Z,100608.17
2023-03-17T15:20:37.589Z,100598.36
2023-03-17T15:23:19.007Z,100597.36
2023-03-17T15:25:56.025Z,100603.20
2023-03-17T15:28:31.228Z,100603.15
2023-03-17T15:31:15.665Z,100608.29
2023-03-17T15:33:47.992Z,100607.66
2023-03-17T15:36:31.766Z,100602.57
2023-03-17T15:39:05.372Z,100603.57
2023-03-17T15:41:37.683Z,100599.30
2023-03-17T15:44:10.084Z,100593.18
2023-03-17T15:46:42.412Z,100591.40
2023-03-17T15:49:15.492Z,100597.33
2023-03-17T15:51:47.814Z,100597.45
2023-03-17T15:54:20.219Z,100599.87
2023-03-17T15:56:52.559Z,100601.04
2023-03-17T15:59:24.978Z,100592.80
2023-03-17T16:01:57.795Z,100601.98
2023-03-17T16:04:30.278Z,100604.37
2023-03-17T16:07:02.916Z,100606.95
2023-03-17T16:09:36.038Z,100603.16
2023-03-17T16:12:10.367Z,100602.66
2023-03-17T16:14:43.101Z,100602.80
2023-03-17T16:17:22.132Z,100601.24
2023-03-17T16:19:54.663Z,100603.98
2023-03-17T16:22:39.505Z,100604.54
2023-03-17T16:25:24.920Z,100599.09
2023-03-17T16:27:59.748Z,100599.32
2023-03-17T16:30:34.435Z,100598.16
2023-03-17T16:33:10.583Z,100597.61
2023-03-17T16:35:43.045Z,100599.70
2023-03-17T16:38:17.875Z,100601.16
2023-03-17T16:40:53.162Z,100602.95
2023-03-17T16:43:28.439Z,100605.07
2023-03-17T16:46:03.565Z,100603.09
2023-03-17T16:48:36.555Z,100603.52
2023-03-17T16:51:10.708Z,100605.98
2023-03-17T16:53:43.150Z,100604.70
2023-03-17T16:56:20.038Z,100600.02
2023-03-17T16:58:52.462Z,100601.88
2023-03-17T17:01:27.806Z,100601.70
2023-03-17T17:04:00.318Z,100593.06
2023-03-17T17:06:32.972Z,100592.84
2023-03-17T17:09:05.455Z,100591.72
2023-03-17T17:11:37.748Z,100598.45
2023-03-17T17:14:10.107Z,100598.14
2023-03-17T17:16:42.779Z,100598.54
2023-03-17T17:19:18.624Z,100593.23
2023-03-17T17:21:50.980Z,100596.45
2023-03-17T17:24:23.298Z,100595.88
2023-03-17T17:26:55.664Z,100596.73
2023-03-17T17:29:29.667Z,100591.18
2023-03-17T17:32:04.306Z,100587.27
2023-03-17T17:34:36.618Z,100587.18
2023-03-17T17:37:10.263Z,100588.27
2023-03-17T17:39:42.532Z,100592.80
2023-03-17T17:42:15.025Z,100588.63
2023-03-17T17:44:47.896Z,100594.81
2023-03-17T17:47:20.440Z,100602.08
2023-03-17T17:49:52.720Z,100604.20
2023-03-17T17:52:25.174Z,100605.09
2023-03-17T17:54:57.800Z,100602.81
2023-03-17T17:57:30.128Z,100601.27
2023-03-17T18:00:02.607Z,100597.21
2023-03-17T18:02:40.905Z,100588.36
2023-03-17T18:05:14.371Z,100586.34
2023-03-17T18:07:46.638Z,100584.42
2023-03-17T18:10:22.380Z,100583.90
2023-03-17T18:12:55.652Z,100578.55
2023-03-17T18:15:28.955Z,100578.59
2023-03-17T18:18:01.366Z,100579.95
2023-03-17T18:20:33.958Z,100576.24
2023-03-17T18:23:06.266Z,100579.44
2023-03-17T18:25:38.699Z,100578.39
2023-03-17T18:28:11.806Z,100581.83
2023-03-17T18:30:44.596Z,100584.77
2023-03-17T18:33:20.596Z,100583.46
2023-03-17T18:35:55.707Z,100591.40
2023-03-17T18:38:26.489Z,100593.05
2023-03-17T18:40:58.865Z,100583.64
2023-03-17T18:43:31.398Z,100594.03
2023-03-17T18:46:03.976Z,100586.52
2023-03-17T18:48:36.434Z,100586.81
2023-03-17T18:51:08.949Z,100580.60
2023-03-17T18:53:41.242Z,100581.97
2023-03-17T18:56:14.830Z,100578.97
2023-03-17T18:58:47.272Z,100578.35
2023-03-17T19:01:19.661Z,100577.83
2023-03-17T19:03:52.382Z,100575.61
2023-03-17T19:06:25.464Z,100580.81
2023-03-17T19:08:57.755Z,100578.23
2023-03-17T19:11:30.282Z,100581.05
2023-03-17T19:14:03.704Z,100576.34
2023-03-17T19:16:36.147Z,100582.30
2023-03-17T19:19:08.674Z,100581.58
2023-03-17T19:21:41.103Z,100579.89
2023-03-17T19:24:14.360Z,100577.39
2023-03-17T19:26:46.647Z,100580.15
2023-03-17T19:29:19.081Z,100578.75
2023-03-17T19:31:51.342Z,100573.45
2023-03-17T19:34:23.928Z,100573.23
2023-03-17T19:36:56.444Z,100575.31
2023-03-17T19:39:28.726Z,100577.27
2023-03-17T19:42:01.455Z,100577.58
2023-03-17T19:44:33.801Z,100576.13
2023-03-17T19:47:08.265Z,100578.16
2023-03-17T19:49:41.980Z,100575.61
2023-03-17T19:52:14.732Z,100582.00
2023-03-17T19:54:47.542Z,100577.17
2023-03-17T19:57:21.027Z,100576.61
2023-03-17T19:59:53.366Z,100573.81
2023-03-17T20:02:25.694Z,100569.84
2023-03-17T20:04:58.022Z,100568.54
2023-03-17T20:07:30.721Z,100568.94
2023-03-17T20:10:03.439Z,100572.27
2023-03-17T20:12:38.080Z,100580.23
2023-03-17T20:15:14.048Z,100579.73
2023-03-17T20:17:46.431Z,100576.86
2023-03-17T20:20:19.414Z,100576.27
2023-03-17T20:22:52.046Z,100574.77
2023-03-17T20:25:24.387Z,100569.66
2023-03-17T20:27:56.695Z,100564.47
2023-03-17T20:30:29.081Z,100563.23
2023-03-17T20:33:02.182Z,100565.80
2023-03-17T20:35:34.931Z,100566.61
2023-03-17T20:38:07.489Z,100564.66
2023-03-17T20:40:39.978Z,100568.34
2023-03-17T20:43:13.099Z,100569.81
2023-03-17T20:45:45.999Z,100568.82
2023-03-17T20:48:18.404Z,100571.53
2023-03-17T20:50:51.428Z,100572.21
2023-03-17T20:53:23.657Z,100576.14
2023-03-17T20:55:56.254Z,100576.65
2023-03-17T20:58:28.957Z,100577.38
2023-03-17T21:01:01.946Z,100573.95
2023-03-17T21:03:34.216Z,100579.04
2023-03-17T21:06:06.723Z,100575.45
2023-03-17T21:08:39.679Z,100573.63
2023-03-17T21:11:16.551Z,100570.08
2023-03-17T21:13:49.297Z,100564.67
2023-03-17T21:16:23.930Z,100566.59
2023-03-17T21:18:56.982Z,100561.42
2023-03-17T21:21:29.741Z,100557.17
2023-03-17T21:24:02.867Z,100557.02
2023-03-17T21:26:35.344Z,100557.67
2023-03-17T21:29:07.762Z,100559.80
2023-03-17T21:31:40.100Z,100555.40
2023-03-17T21:34:13.339Z,100550.05
2023-03-17T21:36:45.572Z,100547.91
2023-03-17T21:39:18.204Z,100539.27
2023-03-17T21:41:51.030Z,100538.13
2023-03-17T21:44:23.640Z,100542.21
2023-03-17T21:46:56.616Z,100537.88
2023-03-17T21:49:28.962Z,100535.06
2023-03-17T21:52:01.354Z,100538.92
2023-03-17T21:54:33.632Z,100537.88
2023-03-17T21:57:06.406Z,100538.92
2023-03-17T21:59:38.847Z,100535.80
2023-03-17T22:02:13.684Z,100537.55
2023-03-17T22:04:46.995Z,100532.92
2023-03-17T22:07:19.658Z,100533.48
2023-03-17T22:09:57.097Z,100529.43
2023-03-17T22:12:29.378Z,100529.84
2023-03-17T22:15:01.644Z,100524.79
2023-03-17T22:17:35.028Z,100527.98
2023-03-17T22:20:09.176Z,100523.67
2023-03-17T22:22:41.565Z,100525.70
2023-03-17T22:25:13.907Z,100520.23
2023-03-17T22:27:46.167Z,100516.83
2023-03-17T22:30:19.128Z,100520.75
2023-03-17T22:32:51.713Z,100517.65
2023-03-17T22:35:25.126Z,100520.89
2023-03-17T22:37:57.429Z,100518.76
2023-03-17T22:40:30.255Z,100515.80
2023-03-17T22:43:03.020Z,100517.17
2023-03-17T22:45:35.445Z,100516.92
2023-03-17T22:48:08.166Z,100515.77
2023-03-17T22:50:42.958Z,100520.61
2023-03-17T22:53:15.558Z,100516.64
2023-03-17T22:55:48.259Z,100517.27
2023-03-17T22:58:20.471Z,100516.15
2023-03-17T23:00:53.795Z,100514.45
2023-03-17T23:03:27.291Z,100514.45
2023-03-17T23:06:01.821Z,100508.48
2023-03-17T23:08:36.194Z,100512.54
2023-03-17T23:11:11.815Z,100514.55
2023-03-17T23:13:45.382Z,100513.22
2023-03-17T23:16:19.033Z,100511.30
2023-03-17T23:18:52.812Z,100514.34
2023-03-17T23:21:27.832Z,100514.57
2023-03-17T23:24:00.962Z,100513.50
2023-03-17T23:26:36.010Z,100512.95
2023-03-17T23:29:09.615Z,100511.23
2023-03-17T23:31:42.517Z,100509.85
2023-03-17T23:34:14.789Z,100503.63
2023-03-17T23:36:47.131Z,100499.17
2023-03-17T23:39:19.477Z,100498.90
2023-03-17T23:41:51.825Z,100484.29
2023-03-17T23:44:24.569Z,100488.11
2023-03-17T23:46:57.253Z,100484.95
2023-03-17T23:49:29.604Z,100489.18
2023-03-17T23:52:01.913Z,100490.73
2023-03-17T23:54:34.226Z,100490.17
2023-03-17T23:57:06.657Z,100484.42
2023-03-17T23:59:39.042Z,100482.23
